Time;durP1;ratioP1;P1;durP2;ratioP2;P2;SDS_P1;SDS_P2;PMS_P1;PMS_P2;Temp;Humidity;BMP_temperature;BMP_pressure;BME280_temperature;BME280_humidity;BME280_pressure;Samples;Min_cycle;Max_cycle;Signal;HPM_P1;HPM_P2
2021/12/14 00:00:01;;;;;;;6.72;4.88;;;;;;;-2.05;100.00;93945.50;2079175;28;20018;-87
2021/12/14 00:01:10;;;;;;;6.65;4.82;;;;;;;-2.11;100.00;93947.53;2082343;28;20033;-88
2021/12/14 00:02:12;;;;;;;5.35;4.43;;;;;;;-2.09;100.00;93950.59;2088537;28;20025;-86
2021/12/14 00:03:24;;;;;;;5.53;4.85;;;;;;;-2.07;100.00;93947.66;2075174;28;20044;-85
2021/12/14 00:04:33;;;;;;;5.80;4.72;;;;;;;-2.06;100.00;93944.72;2082888;28;20032;-88
2021/12/14 00:05:35;;;;;;;5.95;4.13;;;;;;;-2.11;100.00;93941.50;2077737;28;20094;-87
2021/12/14 00:06:38;;;;;;;6.13;4.65;;;;;;;-2.21;100.00;93945.25;2086388;28;20155;-88
2021/12/14 00:07:40;;;;;;;6.93;4.47;;;;;;;-2.14;100.00;93942.16;2084678;28;20060;-87
2021/12/14 00:08:52;;;;;;;6.97;4.82;;;;;;;-2.11;100.00;93952.75;2077263;28;20101;-86
2021/12/14 00:10:02;;;;;;;6.90;5.00;;;;;;;-2.15;100.00;93945.81;2088812;28;20094;-87
2021/12/14 00:15:46;;;;;;;5.43;3.97;;;;;;;-2.20;100.00;93943.38;2098686;28;20734;-88
2021/12/14 00:16:50;;;;;;;5.30;4.65;;;;;;;-2.14;100.00;93945.53;2087156;28;20032;-86
2021/12/14 00:17:54;;;;;;;5.47;4.60;;;;;;;-2.15;100.00;93951.06;2073794;28;20497;-86
2021/12/14 00:18:55;;;;;;;4.78;4.25;;;;;;;-2.18;100.00;93943.84;2081935;28;20124;-88
2021/12/14 00:19:59;;;;;;;6.03;5.00;;;;;;;-2.16;100.00;93949.53;2089243;28;20016;-86
2021/12/14 00:21:06;;;;;;;6.47;4.32;;;;;;;-2.21;100.00;93950.47;2082181;28;20360;-87
2021/12/14 00:22:20;;;;;;;4.82;3.97;;;;;;;-2.19;100.00;93950.19;2082969;28;20072;-89
2021/12/14 00:24:45;;;;;;;5.03;4.15;;;;;;;-2.26;100.00;93955.13;2085313;28;20115;-89
2021/12/14 00:25:49;;;;;;;4.55;3.72;;;;;;;-2.25;100.00;93949.56;2082013;28;20107;-85
2021/12/14 00:26:56;;;;;;;5.03;4.15;;;;;;;-2.20;100.00;93949.38;2074140;28;20040;-85
2021/12/14 00:27:59;;;;;;;5.82;3.58;;;;;;;-2.19;100.00;93947.56;2077677;28;20064;-88
2021/12/14 00:29:00;;;;;;;5.75;4.18;;;;;;;-2.11;100.00;93946.72;2082256;28;20088;-89
2021/12/14 00:30:05;;;;;;;4.20;3.80;;;;;;;-2.11;100.00;93949.34;2081723;28;20156;-87
2021/12/14 00:31:15;;;;;;;4.70;3.90;;;;;;;-2.15;100.00;93948.44;2090087;28;20024;-85
2021/12/14 00:32:19;;;;;;;;;;;;;;;-2.25;100.00;93959.28;2083482;28;20534;-87
2021/12/14 00:33:40;;;;;;;4.63;3.75;;;;;;;-2.34;100.00;93959.31;2082299;28;19909;-87
2021/12/14 00:34:42;;;;;;;5.35;4.18;;;;;;;-2.33;100.00;93955.59;2084463;28;20042;-89
2021/12/14 00:35:44;;;;;;;4.72;3.83;;;;;;;-2.35;100.00;93955.91;2090049;28;20024;-87
2021/12/14 00:36:44;;;;;;;4.57;3.97;;;;;;;-2.33;100.00;93960.84;2079793;28;20079;-88
2021/12/14 00:37:49;;;;;;;4.72;4.20;;;;;;;-2.32;100.00;93957.91;2082495;28;20067;-87
2021/12/14 00:38:56;;;;;;;5.25;3.88;;;;;;;-2.35;100.00;93961.16;2084798;28;20033;-88
2021/12/14 00:39:59;;;;;;;4.65;3.55;;;;;;;-2.35;100.00;93953.31;2077712;28;20350;-86
2021/12/14 00:41:06;;;;;;;4.45;3.90;;;;;;;-2.43;100.00;93955.94;2077650;28;20117;-85
2021/12/14 00:42:07;;;;;;;7.60;4.32;;;;;;;-2.36;100.00;93958.88;2090036;28;20031;-87
2021/12/14 00:43:08;;;;;;;4.43;3.83;;;;;;;-2.36;100.00;93964.09;2089930;28;20029;-87
2021/12/14 00:44:09;;;;;;;4.53;4.10;;;;;;;-2.47;100.00;93955.81;2081701;28;20382;-86
2021/12/14 00:45:10;;;;;;;5.63;4.47;;;;;;;-2.47;100.00;93960.28;2080399;28;20017;-86
2021/12/14 00:46:10;;;;;;;4.93;4.30;;;;;;;-2.44;100.00;93960.41;2082150;28;20494;-88
2021/12/14 00:47:11;;;;;;;6.45;4.57;;;;;;;-2.44;100.00;93962.28;2073498;28;20225;-87
2021/12/14 00:48:14;;;;;;;5.22;4.47;;;;;;;-2.43;100.00;93956.72;2073401;28;20479;-89
2021/12/14 00:49:15;;;;;;;6.70;4.47;;;;;;;-2.56;100.00;93961.06;2080933;28;20092;-90
2021/12/14 00:50:17;;;;;;;5.47;3.90;;;;;;;-2.49;100.00;93960.59;2073444;28;20040;-90
2021/12/14 00:51:21;;;;;;;7.00;4.50;;;;;;;-2.48;100.00;93958.75;2073715;28;20113;-88
2021/12/14 00:52:22;;;;;;;6.63;3.75;;;;;;;-2.47;100.00;93962.88;2081834;28;20454;-86
2021/12/14 00:53:23;;;;;;;6.55;4.30;;;;;;;-2.49;100.00;93965.81;2069525;28;20027;-88
2021/12/14 00:54:39;;;;;;;4.50;3.75;;;;;;;-2.51;100.00;93960.13;2073599;28;20116;-88
2021/12/14 00:55:44;;;;;;;4.63;4.18;;;;;;;-2.48;100.00;93962.13;2075653;28;20100;-85
2021/12/14 00:56:47;;;;;;;4.07;3.47;;;;;;;-2.46;100.00;93962.56;2073455;28;20025;-87
2021/12/14 00:57:47;;;;;;;4.90;3.90;;;;;;;-2.50;100.00;93968.75;2073513;28;20030;-88
2021/12/14 00:58:48;;;;;;;5.15;3.88;;;;;;;-2.48;100.00;93964.75;2065362;28;20510;-89
2021/12/14 00:59:48;;;;;;;6.47;3.90;;;;;;;-2.46;100.00;93964.41;2073575;28;20030;-87
2021/12/14 01:01:27;;;;;;;4.57;3.65;;;;;;;-2.48;100.00;93964.75;2073359;28;20029;-86
2021/12/14 01:02:28;;;;;;;3.78;3.38;;;;;;;-2.47;100.00;93963.66;2070179;28;20038;-87
2021/12/14 01:03:31;;;;;;;5.85;4.22;;;;;;;-2.49;100.00;93972.91;2064904;28;20026;-88
2021/12/14 01:04:40;;;;;;;4.50;3.88;;;;;;;-2.54;100.00;93971.22;2058311;28;20492;-88
2021/12/14 01:05:45;;;;;;;6.28;4.30;;;;;;;-2.56;100.00;93971.53;2066522;28;20486;-88
2021/12/14 01:06:47;;;;;;;5.25;3.78;;;;;;;-2.56;100.00;93965.53;2073204;28;20037;-89
2021/12/14 01:07:48;;;;;;;5.85;3.65;;;;;;;-2.59;100.00;93959.09;2077616;28;20117;-87
2021/12/14 01:08:50;;;;;;;4.90;4.00;;;;;;;-2.62;100.00;93964.94;2081639;28;20537;-88
2021/12/14 01:09:56;;;;;;;4.43;3.80;;;;;;;-2.58;100.00;93965.09;2081566;28;20088;-87
2021/12/14 01:11:15;;;;;;;4.70;3.67;;;;;;;-2.56;100.00;93958.44;2082389;28;20056;-87
2021/12/14 01:12:29;;;;;;;4.28;3.42;;;;;;;-2.58;100.00;93965.84;2083872;28;20056;-88
2021/12/14 01:13:34;;;;;;;4.30;3.75;;;;;;;-2.46;100.00;93962.56;2083595;28;20049;-86
2021/12/14 01:15:12;;;;;;;4.43;3.78;;;;;;;-2.37;100.00;93965.16;2089791;28;20035;-88
2021/12/14 01:16:30;;;;;;;4.47;3.13;;;;;;;-2.39;100.00;93972.56;2086508;28;20041;-88
2021/12/14 01:17:55;;;;;;;4.32;3.92;;;;;;;-2.54;100.00;93966.00;2083853;28;20025;-86
2021/12/14 01:19:20;;;;;;;5.30;3.72;;;;;;;-2.70;100.00;93973.56;2073347;28;20032;-89
2021/12/14 01:20:17;;;;;;;4.25;3.33;;;;;;;-2.64;100.00;93976.78;2075681;28;20052;-88
2021/12/14 01:23:38;;;;;;;5.10;3.13;;;;;;;-2.75;100.00;93971.13;2082206;28;20021;-88
2021/12/14 01:25:01;;;;;;;4.50;3.50;;;;;;;-2.79;100.00;93970.19;2073481;28;20431;-87
2021/12/14 01:26:09;;;;;;;4.05;3.45;;;;;;;-2.70;100.00;93976.19;2068138;28;20037;-87
2021/12/14 01:27:13;;;;;;;4.18;3.40;;;;;;;-2.73;100.00;93979.41;2074093;28;20073;-88
2021/12/14 01:28:18;;;;;;;4.07;3.22;;;;;;;-2.72;100.00;93983.59;2073084;28;20022;-87
2021/12/14 01:29:19;;;;;;;3.88;3.10;;;;;;;-2.61;100.00;93970.94;2065458;28;20472;-87
2021/12/14 01:30:28;;;;;;;4.43;3.65;;;;;;;-2.64;100.00;93979.38;2069378;28;20033;-88
2021/12/14 01:31:35;;;;;;;4.05;3.03;;;;;;;-2.60;100.00;93977.69;2091170;28;20036;-87
2021/12/14 01:32:40;;;;;;;4.10;3.55;;;;;;;-2.63;100.00;93984.34;2081491;28;20068;-90
2021/12/14 01:33:45;;;;;;;4.40;3.58;;;;;;;-2.60;100.00;93981.06;2089708;28;20576;-87
2021/12/14 01:34:45;;;;;;;4.53;3.15;;;;;;;-2.57;100.00;93982.31;2089497;28;20083;-86
2021/12/14 01:35:52;;;;;;;4.07;3.40;;;;;;;-2.45;100.00;93979.81;2081469;28;20022;-87
2021/12/14 01:36:57;;;;;;;4.32;3.20;;;;;;;-2.46;100.00;93985.34;2082069;28;20439;-86
2021/12/14 01:38:02;;;;;;;4.18;2.92;;;;;;;-2.42;100.00;93986.28;2078426;28;20021;-90
2021/12/14 01:40:45;;;;;;;3.20;2.90;;;;;;;-2.57;100.00;93988.31;2083857;28;20025;-87
2021/12/14 01:41:40;;;;;;;3.22;2.85;;;;;;;-2.60;100.00;93990.78;2095029;28;20541;-88
2021/12/14 01:42:41;;;;;;;3.40;2.97;;;;;;;-2.64;100.00;93998.47;2088226;28;20037;-87
2021/12/14 01:43:46;;;;;;;3.95;3.47;;;;;;;-2.68;100.00;93981.09;2073129;28;20026;-87
2021/12/14 01:44:51;;;;;;;3.42;2.95;;;;;;;-2.72;100.00;93985.41;2085302;28;20620;-86
2021/12/14 01:45:53;;;;;;;3.40;3.10;;;;;;;-2.76;100.00;93989.75;2090151;28;20079;-88
2021/12/14 01:47:01;;;;;;;3.80;3.35;;;;;;;-2.80;100.00;93986.97;2089411;28;20025;-90
2021/12/14 01:48:03;;;;;;;4.55;3.63;;;;;;;-2.76;100.00;93987.13;2089376;28;20035;-88
2021/12/14 01:49:07;;;;;;;3.67;3.30;;;;;;;-2.82;100.00;93989.88;2073187;28;20125;-89
2021/12/14 01:50:33;;;;;;;3.78;3.42;;;;;;;-2.82;100.00;93999.56;2082027;28;20459;-88
2021/12/14 01:51:39;;;;;;;3.15;2.75;;;;;;;-2.80;100.00;94000.81;2064486;28;20033;-88
2021/12/14 01:52:40;;;;;;;4.07;3.03;;;;;;;-2.79;100.00;93997.13;2065727;28;20113;-89
2021/12/14 01:53:44;;;;;;;3.78;3.10;;;;;;;-2.80;100.00;93990.34;2073207;28;20030;-86
2021/12/14 01:54:50;;;;;;;3.60;3.15;;;;;;;-2.76;100.00;93994.97;2079157;28;20120;-87
2021/12/14 01:55:55;;;;;;;3.92;3.45;;;;;;;-2.83;100.00;93998.03;2074526;28;20045;-90
2021/12/14 01:56:56;;;;;;;4.65;3.55;;;;;;;-2.94;100.00;93986.34;2079641;28;20028;-88
2021/12/14 01:57:59;;;;;;;4.93;2.80;;;;;;;-2.93;100.00;93993.13;2089602;28;20021;-87
2021/12/14 01:59:08;;;;;;;3.17;2.88;;;;;;;-2.86;100.00;93981.09;2081455;28;20386;-90
2021/12/14 02:00:15;;;;;;;3.55;3.00;;;;;;;-2.85;100.00;93984.53;2074205;28;20048;-86
2021/12/14 02:01:20;;;;;;;4.72;3.08;;;;;;;-2.84;100.00;93986.06;2088090;28;20052;-88
2021/12/14 02:02:43;;;;;;;3.30;3.00;;;;;;;-2.89;100.00;93992.22;2089301;28;20027;-87
2021/12/14 02:03:50;;;;;;;2.75;2.45;;;;;;;-2.89;100.00;93986.22;2083978;28;20029;-89
2021/12/14 02:04:53;;;;;;;5.35;3.17;;;;;;;-2.89;100.00;93991.44;2090200;28;20499;-87
2021/12/14 02:05:54;;;;;;;4.63;2.85;;;;;;;-2.88;100.00;93990.38;2089517;28;20035;-92
2021/12/14 02:06:58;;;;;;;3.38;3.00;;;;;;;-2.91;100.00;93986.50;2081106;28;20108;-88
2021/12/14 02:09:28;;;;;;;;;;;;;;;-2.94;100.00;93987.16;2148799;27;20115;-86
2021/12/14 02:10:35;;;;;;;2.92;2.60;;;;;;;-2.90;100.00;93995.13;2138999;27;20011;-88
2021/12/14 02:11:40;;;;;;;3.28;2.35;;;;;;;-2.89;100.00;94000.06;2131401;27;20031;-88
2021/12/14 02:12:43;;;;;;;3.78;2.92;;;;;;;-2.90;100.00;93992.50;2139219;27;20034;-89
2021/12/14 02:13:47;;;;;;;4.05;3.00;;;;;;;-2.99;100.00;93989.13;2130754;27;20078;-89
2021/12/14 02:14:48;;;;;;;3.97;3.20;;;;;;;-3.01;100.00;93986.06;2130806;27;20050;-87
2021/12/14 02:15:49;;;;;;;3.75;3.20;;;;;;;-3.05;100.00;93988.53;2130700;27;20026;-88
2021/12/14 02:17:03;;;;;;;3.13;2.78;;;;;;;-2.97;100.00;93990.38;2130336;27;20583;-87
2021/12/14 02:18:09;;;;;;;3.03;2.72;;;;;;;-2.86;100.00;93990.81;2132401;27;20023;-87
2021/12/14 02:19:14;;;;;;;3.25;2.65;;;;;;;-2.84;100.00;93993.91;2138177;27;20014;-88
2021/12/14 02:20:18;;;;;;;3.78;3.03;;;;;;;-2.86;100.00;93988.19;2127986;27;20037;-89
2021/12/14 02:21:20;;;;;;;3.75;2.88;;;;;;;-2.86;100.00;93993.41;2125473;27;20488;-87
2021/12/14 02:22:20;;;;;;;3.95;2.92;;;;;;;-2.90;100.00;93995.88;2121915;27;20034;-89
2021/12/14 02:23:22;;;;;;;2.85;2.55;;;;;;;-2.84;100.00;93993.91;2121903;28;20029;-89
2021/12/14 02:24:25;;;;;;;3.33;3.03;;;;;;;-2.95;100.00;93995.28;2133112;27;20034;-89
2021/12/14 02:25:26;;;;;;;3.90;3.05;;;;;;;-2.94;100.00;93988.97;2130722;27;20054;-89
2021/12/14 02:26:31;;;;;;;3.28;2.60;;;;;;;-2.95;100.00;94003.13;2130352;27;20023;-88
2021/12/14 02:27:41;;;;;;;2.65;2.42;;;;;;;-2.95;100.00;94001.28;2130931;27;20030;-89
2021/12/14 02:28:42;;;;;;;3.63;3.20;;;;;;;-2.84;100.00;94001.75;2139079;27;20050;-87
2021/12/14 02:29:46;;;;;;;4.43;3.05;;;;;;;-2.94;100.00;94010.69;2130423;27;20026;-87
2021/12/14 02:30:49;;;;;;;2.65;2.40;;;;;;;-2.99;100.00;94002.97;2130740;27;20027;-89
2021/12/14 02:31:51;;;;;;;3.75;3.05;;;;;;;-3.02;100.00;94003.59;2138899;27;20301;-88
2021/12/14 02:32:52;;;;;;;3.63;2.70;;;;;;;-3.04;100.00;94000.50;2130454;27;20026;-87
2021/12/14 02:33:55;;;;;;;3.15;2.85;;;;;;;-3.08;100.00;94004.81;2130285;27;20050;-90
2021/12/14 02:35:00;;;;;;;3.80;2.88;;;;;;;-3.05;100.00;93996.38;2130779;27;20101;-87
2021/12/14 02:36:05;;;;;;;2.97;2.67;;;;;;;-3.05;100.00;93989.28;2130743;27;20739;-86
2021/12/14 02:37:08;;;;;;;3.20;2.90;;;;;;;-3.05;100.00;94002.34;2130799;27;20023;-88
2021/12/14 02:38:11;;;;;;;3.50;3.17;;;;;;;-3.04;100.00;93992.66;2130519;27;20379;-88
2021/12/14 02:39:46;;;;;;;4.03;3.25;;;;;;;-3.09;100.00;93998.81;2130812;27;20023;-89
2021/12/14 02:40:54;;;;;;;3.03;2.50;;;;;;;-3.04;100.00;93992.66;2143898;27;20097;-88
2021/12/14 02:41:58;;;;;;;2.83;2.55;;;;;;;-3.03;100.00;93994.19;2138755;27;20081;-88
2021/12/14 02:43:01;;;;;;;5.40;2.78;;;;;;;-3.16;100.00;93998.53;2130528;27;20019;-87
2021/12/14 02:44:02;;;;;;;3.28;2.67;;;;;;;-3.19;100.00;94001.75;2130410;27;20019;-85
2021/12/14 02:45:03;;;;;;;4.65;2.90;;;;;;;-3.14;100.00;93995.59;2130341;27;20023;-87
2021/12/14 02:46:25;;;;;;;4.78;2.78;;;;;;;-3.10;100.00;93986.81;2130278;27;20019;-86
2021/12/14 02:47:27;;;;;;;5.22;2.90;;;;;;;-3.07;100.00;93988.06;2138919;27;20033;-87
2021/12/14 02:48:28;;;;;;;2.95;2.47;;;;;;;-3.07;100.00;93988.06;2130225;27;20023;-86
2021/12/14 02:49:33;;;;;;;2.50;2.30;;;;;;;-3.13;100.00;93994.50;2130198;27;20467;-89
2021/12/14 02:50:34;;;;;;;2.50;2.30;;;;;;;-3.07;100.00;93982.84;2138861;27;20019;-86
2021/12/14 02:51:41;;;;;;;2.90;2.40;;;;;;;-3.05;100.00;93985.91;2130283;27;20015;-88
2021/12/14 02:52:42;;;;;;;3.03;2.70;;;;;;;-3.08;100.00;93986.50;2130116;27;20490;-86
2021/12/14 02:53:46;;;;;;;2.78;2.50;;;;;;;-3.16;100.00;93988.06;2121645;28;20026;-86
2021/12/14 02:54:52;;;;;;;2.92;2.50;;;;;;;-3.08;100.00;93986.50;2122162;27;20498;-86
2021/12/14 02:55:53;;;;;;;3.35;2.70;;;;;;;-3.05;100.00;93988.53;2130294;27;20126;-87
2021/12/14 02:56:58;;;;;;;2.95;2.60;;;;;;;-3.06;100.00;93987.00;2129900;27;20110;-88
2021/12/14 02:58:05;;;;;;;4.70;3.28;;;;;;;-3.06;100.00;93987.00;2130038;27;20054;-88
2021/12/14 02:59:10;;;;;;;3.10;2.80;;;;;;;-3.07;100.00;93982.84;2122334;27;20031;-86
2021/12/14 03:00:17;;;;;;;3.92;2.55;;;;;;;-3.02;100.00;93987.16;2130877;27;20023;-86
2021/12/14 03:01:18;;;;;;;3.35;2.60;;;;;;;-3.12;100.00;93980.34;2130176;27;20110;-86
2021/12/14 03:02:23;;;;;;;2.78;2.53;;;;;;;-3.16;100.00;93985.47;2121219;28;20080;-86
2021/12/14 03:03:25;;;;;;;3.35;2.42;;;;;;;-3.11;100.00;93977.44;2122203;27;20027;-88
2021/12/14 03:04:25;;;;;;;3.38;2.60;;;;;;;-3.16;100.00;93982.84;2124562;27;20022;-89
2021/12/14 03:05:33;;;;;;;3.75;2.80;;;;;;;-3.12;100.00;93977.75;2130051;27;20060;-86
2021/12/14 03:06:46;;;;;;;2.55;2.35;;;;;;;-3.15;100.00;93976.53;2122578;27;20027;-89
2021/12/14 03:07:55;;;;;;;2.90;2.53;;;;;;;-3.16;100.00;93971.59;2122831;27;20456;-86
2021/12/14 03:09:08;;;;;;;3.53;3.10;;;;;;;-3.18;100.00;93969.28;2128409;27;20042;-87
2021/12/14 03:11:17;;;;;;;3.17;2.28;;;;;;;-3.09;100.00;93969.28;2130445;27;20015;-89
2021/12/14 03:12:36;;;;;;;3.40;2.55;;;;;;;-3.06;100.00;93966.06;2129949;27;20093;-89
2021/12/14 03:13:54;;;;;;;4.82;2.88;;;;;;;-3.08;100.00;93966.34;2124187;27;20019;-87
2021/12/14 03:15:07;;;;;;;2.70;2.30;;;;;;;-3.09;100.00;93967.44;2123882;27;20117;-89
2021/12/14 03:16:13;;;;;;;5.90;2.60;;;;;;;-3.11;100.00;93969.59;2122902;27;20076;-88
2021/12/14 03:17:14;;;;;;;3.13;2.65;;;;;;;-3.12;100.00;93967.28;2129435;27;20043;-88
2021/12/14 03:18:26;;;;;;;4.22;2.60;;;;;;;-3.14;100.00;93970.22;2133055;27;20022;-86
2021/12/14 03:19:27;;;;;;;3.47;2.17;;;;;;;-3.11;100.00;93971.47;2129553;27;20101;-85
2021/12/14 03:20:32;;;;;;;3.22;2.35;;;;;;;-3.14;100.00;93959.75;2134385;27;20026;-88
2021/12/14 03:21:37;;;;;;;2.83;2.22;;;;;;;-3.14;100.00;93964.22;2127785;27;20019;-89
2021/12/14 03:22:48;;;;;;;1.92;1.80;;;;;;;-3.16;100.00;93972.38;2124249;27;20034;-87
2021/12/14 03:24:00;;;;;;;2.60;2.40;;;;;;;-3.13;100.00;93970.97;2116927;27;20030;-88
2021/12/14 03:25:00;;;;;;;3.72;2.30;;;;;;;-3.16;100.00;93964.53;2117117;27;20448;-87
2021/12/14 03:26:04;;;;;;;2.83;1.90;;;;;;;-3.11;100.00;93961.75;2123385;27;20093;-90
2021/12/14 03:27:05;;;;;;;1.90;1.80;;;;;;;-3.14;100.00;93970.22;2132373;27;20115;-85
2021/12/14 03:28:07;;;;;;;2.85;2.20;;;;;;;-3.05;100.00;93968.38;2124205;27;20117;-89
2021/12/14 03:29:13;;;;;;;2.53;2.17;;;;;;;-3.12;100.00;93964.66;2123355;27;20019;-88
2021/12/14 03:30:32;;;;;;;2.75;2.28;;;;;;;-3.14;100.00;93966.84;2118625;27;20029;-85
2021/12/14 03:31:38;;;;;;;2.13;1.92;;;;;;;-3.16;100.00;93969.78;2132808;27;20394;-86
2021/12/14 03:32:39;;;;;;;3.33;2.30;;;;;;;-3.13;100.00;93961.28;2124202;27;20101;-88
2021/12/14 03:33:48;;;;;;;3.20;2.30;;;;;;;-3.19;100.00;93956.53;2124031;27;20023;-86
2021/12/14 03:34:49;;;;;;;1.85;1.60;;;;;;;-3.19;100.00;93967.75;2116775;27;20024;-89
2021/12/14 03:35:59;;;;;;;2.72;2.10;;;;;;;-3.16;100.00;93966.34;2115555;28;20027;-87
2021/12/14 03:36:59;;;;;;;;;;;;;;;-3.07;100.00;93965.31;2117481;27;20024;-87
2021/12/14 03:38:09;;;;;;;2.22;2.03;;;;;;;-3.02;100.00;93966.22;2115482;28;19958;-85
2021/12/14 03:39:22;;;;;;;2.72;2.33;;;;;;;-3.04;100.00;93969.13;2116582;27;20027;-86
2021/12/14 03:40:23;;;;;;;2.53;1.95;;;;;;;-3.08;100.00;93968.22;2117282;27;20535;-84
2021/12/14 03:41:49;;;;;;;2.60;2.08;;;;;;;-3.14;100.00;93959.75;2117863;27;20020;-86
2021/12/14 03:42:49;;;;;;;2.35;2.00;;;;;;;-3.14;100.00;93970.22;2117948;27;20031;-87
2021/12/14 03:44:00;;;;;;;2.33;1.95;;;;;;;-3.14;100.00;93975.44;2124010;27;20638;-88
2021/12/14 03:45:03;;;;;;;2.03;1.83;;;;;;;-3.13;100.00;93973.59;2117500;27;20023;-87
2021/12/14 03:46:05;;;;;;;2.10;1.73;;;;;;;-3.08;100.00;93974.19;2115996;27;20019;-87
2021/12/14 03:47:19;;;;;;;2.50;1.85;;;;;;;-3.07;100.00;93967.16;2115514;28;20146;-87
2021/12/14 03:48:26;;;;;;;2.03;1.73;;;;;;;-3.19;100.00;93973.00;2117225;27;20026;-88
2021/12/14 03:49:31;;;;;;;1.95;1.75;;;;;;;-3.13;100.00;93969.13;2115901;27;20492;-84
2021/12/14 03:50:40;;;;;;;2.22;2.03;;;;;;;-3.07;100.00;93962.69;2116092;27;20030;-89
2021/12/14 03:51:41;;;;;;;2.80;2.15;;;;;;;-3.02;100.00;93971.47;2124976;27;20641;-86
2021/12/14 03:52:43;;;;;;;1.80;1.63;;;;;;;-3.00;100.00;93959.59;2123873;27;20034;-89
2021/12/14 03:53:43;;;;;;;1.63;1.52;;;;;;;-3.06;100.00;93969.44;2115636;27;20055;-86
2021/12/14 03:54:44;;;;;;;2.13;1.90;;;;;;;-3.12;100.00;93968.06;2115240;28;20023;-84
2021/12/14 03:55:49;;;;;;;2.20;1.90;;;;;;;-3.10;100.00;93958.06;2116497;27;20032;-83
2021/12/14 03:56:51;;;;;;;2.95;2.28;;;;;;;-3.10;100.00;93968.53;2124080;27;20027;-85
2021/12/14 03:57:53;;;;;;;1.98;1.80;;;;;;;-3.11;100.00;93956.53;2123817;27;20018;-86
2021/12/14 03:58:54;;;;;;;2.05;1.80;;;;;;;-2.97;100.00;93971.28;2115459;28;20020;-85
2021/12/14 03:59:54;;;;;;;4.35;1.80;;;;;;;-2.90;100.00;93974.97;2122164;27;20106;-86
2021/12/14 04:00:59;;;;;;;2.33;2.00;;;;;;;-2.89;100.00;93971.28;2123694;27;20110;-85
2021/12/14 04:02:03;;;;;;;2.20;1.50;;;;;;;-2.92;100.00;93981.59;2115780;27;20633;-86
2021/12/14 04:03:10;;;;;;;3.47;2.20;;;;;;;-2.91;100.00;93989.13;2115650;27;20837;-87
2021/12/14 04:04:20;;;;;;;2.33;2.13;;;;;;;-3.06;100.00;93981.75;2116204;27;20026;-85
2021/12/14 04:05:21;;;;;;;4.65;2.20;;;;;;;-3.13;100.00;93982.22;2130083;27;20031;-86
2021/12/14 04:06:22;;;;;;;2.10;1.90;;;;;;;-3.12;100.00;93985.59;2132487;27;20023;-87
2021/12/14 04:07:22;;;;;;;2.08;1.58;;;;;;;-3.09;100.00;93980.50;2123808;27;20024;-84
2021/12/14 04:08:26;;;;;;;2.05;1.65;;;;;;;-3.07;100.00;93991.44;2123879;27;20027;-85
2021/12/14 04:09:30;;;;;;;3.33;1.90;;;;;;;-3.10;100.00;93986.81;2123848;27;20431;-87
2021/12/14 04:10:33;;;;;;;2.10;1.90;;;;;;;-3.14;100.00;93998.22;2123698;27;20015;-86
2021/12/14 04:11:34;;;;;;;2.60;2.22;;;;;;;-3.16;100.00;93995.91;2115724;27;20020;-85
2021/12/14 04:12:35;;;;;;;1.85;1.63;;;;;;;-3.15;100.00;93994.84;2115331;28;20104;-86
2021/12/14 04:13:41;;;;;;;2.22;1.92;;;;;;;-3.25;100.00;93997.72;2115586;28;20028;-85
2021/12/14 04:14:46;;;;;;;2.58;1.80;;;;;;;-3.29;100.00;93994.22;2124759;27;20046;-87
2021/12/14 04:15:46;;;;;;;3.15;1.75;;;;;;;-3.32;100.00;93990.34;2133036;27;20019;-88
2021/12/14 04:16:50;;;;;;;4.25;2.22;;;;;;;-3.28;100.00;93994.97;2132338;27;20107;-85
2021/12/14 04:17:51;;;;;;;2.05;1.83;;;;;;;-3.19;100.00;93998.38;2124254;27;20480;-87
2021/12/14 04:18:52;;;;;;;1.98;1.85;;;;;;;-3.17;100.00;93996.97;2132450;27;20015;-86
2021/12/14 04:19:52;;;;;;;3.13;1.98;;;;;;;-3.18;100.00;93998.06;2132330;27;20514;-86
2021/12/14 04:21:00;;;;;;;2.60;2.08;;;;;;;-3.26;100.00;93998.81;2123570;27;20050;-88
2021/12/14 04:22:07;;;;;;;2.03;1.83;;;;;;;-3.38;100.00;94002.03;2116908;27;20024;-88
2021/12/14 04:23:12;;;;;;;2.05;1.85;;;;;;;-3.24;100.00;93988.06;2115844;27;20554;-85
2021/12/14 04:24:17;;;;;;;2.20;1.98;;;;;;;-3.19;100.00;93993.91;2123941;27;20023;-90
2021/12/14 04:25:23;;;;;;;3.40;1.90;;;;;;;-3.15;100.00;93994.84;2123754;27;20031;-88
2021/12/14 04:26:24;;;;;;;2.38;1.85;;;;;;;-3.17;100.00;93983.91;2115801;27;20032;-87
2021/12/14 04:27:28;;;;;;;2.25;1.85;;;;;;;-3.13;100.00;93991.91;2115197;28;20070;-85
2021/12/14 04:28:34;;;;;;;2.22;2.00;;;;;;;-3.09;100.00;94000.66;2124236;27;20356;-88
2021/12/14 04:29:36;;;;;;;4.03;1.90;;;;;;;-3.12;100.00;93998.66;2123567;27;20730;-88
2021/12/14 04:30:37;;;;;;;2.90;1.88;;;;;;;-3.16;100.00;93998.53;2115254;27;20137;-88
2021/12/14 04:31:39;;;;;;;2.50;2.30;;;;;;;-3.08;100.00;94002.19;2123413;27;20027;-87
2021/12/14 04:32:40;;;;;;;2.60;1.80;;;;;;;-3.02;100.00;94000.22;2123201;27;20034;-86
2021/12/14 04:33:43;;;;;;;2.95;2.17;;;;;;;-3.18;100.00;94008.50;2123303;27;20026;-88
2021/12/14 04:34:45;;;;;;;2.03;1.90;;;;;;;-3.21;100.00;94011.72;2118622;27;20515;-86
2021/12/14 04:35:47;;;;;;;1.75;1.65;;;;;;;-3.07;100.00;94012.38;2119983;27;20062;-88
2021/12/14 04:36:51;;;;;;;2.50;1.90;;;;;;;-3.11;100.00;94005.44;2122847;27;20027;-86
2021/12/14 04:37:57;;;;;;;2.10;1.90;;;;;;;-3.12;100.00;94011.72;2123659;27;20029;-88
2021/12/14 04:39:24;;;;;;;2.60;1.80;;;;;;;-3.09;100.00;94011.88;2123373;27;20398;-85
2021/12/14 04:51:54;;;;;;;2.08;1.90;;;;;;;-3.15;100.00;94015.75;2123675;27;20106;-89
2021/12/14 04:52:36;;;;;;;3.33;2.03;;;;;;;-3.35;100.00;93998.03;2124046;27;20034;-85
2021/12/14 04:53:49;;;;;;;2.97;1.83;;;;;;;-3.31;100.00;94004.97;2123378;27;20023;-88
2021/12/14 04:54:55;;;;;;;1.85;1.67;;;;;;;-3.31;100.00;93993.75;2123581;27;20509;-88
2021/12/14 04:55:57;;;;;;;2.78;2.30;;;;;;;-3.34;100.00;93987.25;2124244;27;20058;-85
2021/12/14 04:56:59;;;;;;;2.95;2.20;;;;;;;-3.40;100.00;93993.72;2123350;27;20023;-89
2021/12/14 04:57:59;;;;;;;1.83;1.73;;;;;;;-3.36;100.00;93981.59;2115011;28;20019;-87
2021/12/14 04:59:06;;;;;;;5.70;1.80;;;;;;;-3.28;100.00;93981.91;2114876;28;20457;-86
2021/12/14 05:00:30;;;;;;;2.35;1.63;;;;;;;-3.26;100.00;93977.91;2115841;27;20431;-87
2021/12/14 05:01:37;;;;;;;2.08;1.50;;;;;;;-3.24;100.00;93977.59;2118269;27;20015;-86
2021/12/14 05:02:56;;;;;;;2.17;1.98;;;;;;;-3.16;100.00;93977.63;2115579;27;20031;-86
2021/12/14 05:04:01;;;;;;;3.17;1.92;;;;;;;-3.23;100.00;93982.53;2117448;27;20057;-87
2021/12/14 05:05:02;;;;;;;2.67;1.70;;;;;;;-3.17;100.00;93989.13;2118376;27;20388;-85
2021/12/14 05:06:19;;;;;;;2.22;1.40;;;;;;;-3.13;100.00;93984.06;2119476;27;20015;-87
2021/12/14 05:07:43;;;;;;;2.83;1.65;;;;;;;-3.04;100.00;93992.66;2125677;27;20491;-88
2021/12/14 05:09:53;;;;;;;2.22;1.88;;;;;;;-3.13;100.00;93994.50;2132129;27;20035;-86
2021/12/14 05:10:55;;;;;;;3.05;1.63;;;;;;;-3.15;100.00;93994.84;2132643;27;20050;-89
2021/12/14 05:11:59;;;;;;;1.95;1.55;;;;;;;-3.20;100.00;94000.22;2132020;27;20114;-85
2021/12/14 05:13:00;;;;;;;1.85;1.38;;;;;;;-3.19;100.00;93993.91;2132067;27;20026;-85
2021/12/14 05:14:06;;;;;;;2.25;1.60;;;;;;;-3.16;100.00;93998.53;2132350;27;20153;-87
2021/12/14 05:15:10;;;;;;;2.83;1.92;;;;;;;-3.15;100.00;94005.28;2127575;27;20031;-86
2021/12/14 05:16:23;;;;;;;1.85;1.63;;;;;;;-3.07;100.00;93995.91;2115204;27;20019;-85
2021/12/14 05:17:30;;;;;;;2.30;2.10;;;;;;;-3.05;100.00;93999.75;2118824;27;20054;-86
2021/12/14 05:18:31;;;;;;;2.65;1.95;;;;;;;-3.21;100.00;93996.03;2124193;27;20363;-92
2021/12/14 05:19:35;;;;;;;3.30;1.67;;;;;;;-3.36;100.00;93999.13;2122819;27;20034;-85
2021/12/14 05:20:39;;;;;;;3.03;1.50;;;;;;;-3.27;100.00;93991.28;2123175;27;20023;-86
2021/12/14 05:21:48;;;;;;;2.05;1.65;;;;;;;-3.34;100.00;93991.72;2122136;27;20513;-88
2021/12/14 05:22:49;;;;;;;1.88;1.60;;;;;;;-3.27;100.00;93989.44;2122381;27;20055;-85
2021/12/14 05:23:51;;;;;;;3.15;2.03;;;;;;;-3.25;100.00;93989.13;2128863;27;20471;-86
2021/12/14 05:25:01;;;;;;;2.38;1.95;;;;;;;-3.27;100.00;93981.59;2121997;27;20482;-86
2021/12/14 05:26:03;;;;;;;2.97;2.10;;;;;;;-3.25;100.00;93983.88;2119488;27;20027;-85
2021/12/14 05:27:06;;;;;;;3.05;2.80;;;;;;;-3.23;100.00;93981.75;2121658;27;20023;-88
2021/12/14 05:28:09;;;;;;;3.97;2.88;;;;;;;-3.15;100.00;93983.59;2121846;27;20104;-87
2021/12/14 05:29:10;;;;;;;3.00;2.70;;;;;;;-3.15;100.00;93979.16;2125813;27;20069;-88
2021/12/14 05:30:18;;;;;;;2.97;2.78;;;;;;;-3.23;100.00;93984.38;2121312;27;20031;-87